createdAt,value
2018-05-13T00:02:25.768Z,5.33
2018-05-13T00:04:55.427Z,5.70
2018-05-13T00:07:25.146Z,5.23
2018-05-13T00:09:54.833Z,5.60
2018-05-13T00:12:24.518Z,5.57
2018-05-13T00:14:54.199Z,5.30
2018-05-13T00:17:23.909Z,5.53
2018-05-13T00:19:53.718Z,5.50
2018-05-13T00:22:23.300Z,5.70
2018-05-13T00:24:53.034Z,5.87
2018-05-13T00:27:22.824Z,4.97
2018-05-13T00:29:52.563Z,5.37
2018-05-13T00:32:22.237Z,5.20
2018-05-13T00:34:51.835Z,4.73
2018-05-13T00:37:21.598Z,5.03
2018-05-13T00:39:51.496Z,5.40
2018-05-13T00:42:21.289Z,5.53
2018-05-13T00:44:50.851Z,5.60
2018-05-13T00:47:20.721Z,5.27
2018-05-13T00:49:50.401Z,4.70
2018-05-13T00:52:19.932Z,5.23
2018-05-13T00:54:56.765Z,5.33
2018-05-13T00:57:26.503Z,5.30
2018-05-13T00:59:56.373Z,5.13
2018-05-13T01:02:26.203Z,5.10
2018-05-13T01:04:55.816Z,4.67
2018-05-13T01:07:25.665Z,5.13
2018-05-13T01:09:55.348Z,4.93
2018-05-13T01:12:25.212Z,5.13
2018-05-13T01:14:54.791Z,5.07
2018-05-13T01:17:24.431Z,5.30
2018-05-13T01:19:54.272Z,5.30
2018-05-13T01:22:23.911Z,5.57
2018-05-13T01:24:53.826Z,4.87
2018-05-13T01:27:23.512Z,4.93
2018-05-13T01:29:53.244Z,5.20
2018-05-13T01:32:22.983Z,5.37
2018-05-13T01:34:52.818Z,5.40
2018-05-13T01:37:22.401Z,5.93
2018-05-13T01:39:52.118Z,5.33
2018-05-13T01:42:21.887Z,4.87
2018-05-13T01:44:51.547Z,5.87
2018-05-13T01:47:21.421Z,5.13
2018-05-13T01:49:50.962Z,5.83
2018-05-13T01:52:20.544Z,4.83
2018-05-13T01:54:50.383Z,5.77
2018-05-13T01:57:20.043Z,5.30
2018-05-13T01:59:49.756Z,5.27
2018-05-13T02:02:19.455Z,5.60
2018-05-13T02:04:49.136Z,5.30
2018-05-13T02:07:18.846Z,5.50
2018-05-13T02:09:48.733Z,5.27
2018-05-13T02:12:18.302Z,5.17
2018-05-13T02:14:48.091Z,4.70
2018-05-13T02:17:17.860Z,5.60
2018-05-13T02:19:47.433Z,4.83
2018-05-13T02:22:17.326Z,5.37
2018-05-13T02:24:47.005Z,5.30
2018-05-13T02:27:16.794Z,5.50
2018-05-13T02:29:48.676Z,5.20
2018-05-13T02:32:18.342Z,5.50
2018-05-13T02:34:47.997Z,5.07
2018-05-13T02:37:17.772Z,5.33
2018-05-13T02:39:47.440Z,5.50
2018-05-13T02:42:17.208Z,5.17
2018-05-13T02:44:47.051Z,5.80
2018-05-13T02:47:16.644Z,5.40
2018-05-13T02:49:46.382Z,5.33
2018-05-13T02:52:16.153Z,5.73
2018-05-13T02:54:45.884Z,5.77
2018-05-13T02:57:15.576Z,5.90
2018-05-13T02:59:45.296Z,5.90
2018-05-13T03:02:15.037Z,5.53
2018-05-13T03:04:44.746Z,5.63
2018-05-13T03:07:14.428Z,5.67
2018-05-13T03:09:44.136Z,5.60
2018-05-13T03:12:13.938Z,6.10
2018-05-13T03:14:43.551Z,5.80
2018-05-13T03:17:13.300Z,5.30
2018-05-13T03:19:43.090Z,5.80
2018-05-13T03:22:13.694Z,5.17
2018-05-13T03:24:43.455Z,5.20
2018-05-13T03:27:13.076Z,5.47
2018-05-13T03:29:42.885Z,5.07
2018-05-13T03:32:12.629Z,5.57
2018-05-13T03:34:42.461Z,5.67
2018-05-13T03:37:12.208Z,5.80
2018-05-13T03:39:41.880Z,5.37
2018-05-13T03:42:11.550Z,5.37
2018-05-13T03:44:41.352Z,5.57
2018-05-13T03:47:11.196Z,5.33
2018-05-13T03:49:40.951Z,5.97
2018-05-13T03:52:10.693Z,5.60
2018-05-13T03:54:40.474Z,5.97
2018-05-13T03:57:10.072Z,5.87
2018-05-13T03:59:39.718Z,5.97
2018-05-13T04:02:09.435Z,5.80
2018-05-13T04:04:39.127Z,6.07
2018-05-13T04:07:08.889Z,5.63
2018-05-13T04:09:49.298Z,6.17
2018-05-13T04:13:29.459Z,6.30
2018-05-13T04:15:59.330Z,6.07
2018-05-13T04:18:29.033Z,6.00
2018-05-13T04:20:58.772Z,6.40
2018-05-13T04:23:28.704Z,6.10
2018-05-13T04:25:58.445Z,6.10
2018-05-13T04:28:28.323Z,6.50
2018-05-13T04:30:58.893Z,5.93
2018-05-13T04:33:28.647Z,5.97
2018-05-13T04:35:58.410Z,6.63
2018-05-13T04:38:28.127Z,6.63
2018-05-13T04:40:57.817Z,6.73
2018-05-13T04:43:27.409Z,6.47
2018-05-13T04:45:58.021Z,6.37
2018-05-13T04:48:28.014Z,6.80
2018-05-13T04:50:57.814Z,6.40
2018-05-13T04:53:27.604Z,7.13
2018-05-13T04:55:57.773Z,6.40
2018-05-13T04:58:27.686Z,7.03
2018-05-13T05:00:57.474Z,6.87
2018-05-13T05:03:27.236Z,6.77
2018-05-13T05:05:57.028Z,6.53
2018-05-13T05:08:26.689Z,7.30
2018-05-13T05:10:56.439Z,6.70
2018-05-13T05:13:26.080Z,7.17
2018-05-13T05:15:55.821Z,6.83
2018-05-13T05:18:25.502Z,7.03
2018-05-13T05:20:55.121Z,7.20
2018-05-13T05:23:24.834Z,6.87
2018-05-13T05:25:54.526Z,6.43
2018-05-13T05:28:24.197Z,6.57
2018-05-13T05:30:53.853Z,6.60
2018-05-13T05:33:23.476Z,7.10
2018-05-13T05:35:53.306Z,7.07
2018-05-13T05:38:23.006Z,6.77
2018-05-13T05:40:52.713Z,7.00
2018-05-13T05:43:22.499Z,7.00
2018-05-13T05:45:52.221Z,6.47
2018-05-13T05:48:21.960Z,6.53
2018-05-13T05:50:51.662Z,6.83
2018-05-13T05:53:21.465Z,6.70
2018-05-13T05:55:51.091Z,7.07
2018-05-13T05:58:20.866Z,6.67
2018-05-13T06:00:50.593Z,6.60
2018-05-13T06:03:20.498Z,7.23
2018-05-13T06:05:50.246Z,7.17
2018-05-13T06:08:19.965Z,7.37
2018-05-13T06:10:49.740Z,6.70
2018-05-13T06:13:19.490Z,6.47
2018-05-13T06:15:49.157Z,6.33
2018-05-13T06:18:18.870Z,6.77
2018-05-13T06:20:48.520Z,6.07
2018-05-13T06:23:18.101Z,6.30
2018-05-13T06:25:51.906Z,6.40
2018-05-13T06:28:21.546Z,6.60
2018-05-13T06:30:51.397Z,6.33
2018-05-13T06:33:21.248Z,6.03
2018-05-13T06:35:50.906Z,5.77
2018-05-13T06:38:20.607Z,6.27
2018-05-13T06:40:50.154Z,5.93
2018-05-13T06:43:19.740Z,6.40
2018-05-13T06:45:49.599Z,6.07
2018-05-13T06:48:19.211Z,6.10
2018-05-13T06:50:48.893Z,5.47
2018-05-13T06:53:18.743Z,5.70
2018-05-13T06:55:49.413Z,5.47
2018-05-13T06:58:19.423Z,5.87
2018-05-13T07:00:49.028Z,5.50
2018-05-13T07:03:18.855Z,6.00
2018-05-13T07:05:48.721Z,5.30
2018-05-13T07:08:18.289Z,5.67
2018-05-13T07:10:47.979Z,6.00
2018-05-13T07:13:17.778Z,5.47
2018-05-13T07:15:47.451Z,5.20
2018-05-13T07:18:17.249Z,5.47
2018-05-13T07:20:46.915Z,5.53
2018-05-13T07:23:17.215Z,5.00
2018-05-13T07:25:46.965Z,5.80
2018-05-13T07:28:16.597Z,5.07
2018-05-13T07:30:47.596Z,5.33
2018-05-13T07:33:17.456Z,5.07
2018-05-13T07:35:47.276Z,5.07
2018-05-13T07:38:17.080Z,5.40
2018-05-13T07:40:46.808Z,5.50
2018-05-13T07:43:16.574Z,5.43
2018-05-13T07:45:47.350Z,5.23
2018-05-13T07:48:17.142Z,5.07
2018-05-13T07:50:46.681Z,5.60
2018-05-13T07:53:16.446Z,5.80
2018-05-13T07:55:46.135Z,5.50
2018-05-13T07:58:15.828Z,5.27
2018-05-13T08:00:45.734Z,5.27
2018-05-13T08:03:15.560Z,5.10
2018-05-13T08:05:45.266Z,5.10
2018-05-13T08:08:15.038Z,4.90
2018-05-13T08:10:44.591Z,5.00
2018-05-13T08:13:14.440Z,5.20
2018-05-13T08:15:44.133Z,4.70
2018-05-13T08:18:13.857Z,4.90
2018-05-13T08:20:43.648Z,4.83
2018-05-13T08:23:13.354Z,4.90
2018-05-13T08:25:43.056Z,4.90
2018-05-13T08:28:12.859Z,4.07
2018-05-13T08:30:42.464Z,3.43
2018-05-13T08:33:12.179Z,4.00
2018-05-13T08:35:41.838Z,4.00
2018-05-13T08:38:11.645Z,3.50
2018-05-13T08:40:41.410Z,3.20
2018-05-13T08:43:11.032Z,3.77
2018-05-13T08:45:41.772Z,3.33
2018-05-13T08:48:11.456Z,3.63
2018-05-13T08:50:41.393Z,3.33
2018-05-13T08:53:11.196Z,3.60
2018-05-13T08:55:40.953Z,3.60
2018-05-13T08:58:10.858Z,3.47
2018-05-13T09:00:40.447Z,3.70
2018-05-13T09:03:10.059Z,3.60
2018-05-13T09:05:39.811Z,3.40
2018-05-13T09:08:09.551Z,3.20
2018-05-13T09:10:39.143Z,3.33
2018-05-13T09:13:09.000Z,3.40
2018-05-13T09:15:39.283Z,3.90
2018-05-13T09:18:09.613Z,3.03
2018-05-13T09:20:41.116Z,3.20
2018-05-13T09:23:11.477Z,3.30
2018-05-13T09:25:41.857Z,3.30
2018-05-13T09:28:12.286Z,3.50
2018-05-13T09:30:42.572Z,3.37
2018-05-13T09:33:12.969Z,3.23
2018-05-13T09:35:43.380Z,3.37
2018-05-13T09:38:13.938Z,3.33
2018-05-13T09:40:44.312Z,3.30
2018-05-13T09:43:14.794Z,3.20
2018-05-13T09:45:45.231Z,3.50
2018-05-13T09:48:15.483Z,3.43
2018-05-13T09:50:45.904Z,3.60
2018-05-13T09:53:16.329Z,3.60
2018-05-13T09:55:46.907Z,3.50
2018-05-13T09:58:17.432Z,3.13
2018-05-13T10:00:47.831Z,3.40
2018-05-13T10:03:18.353Z,3.67
2018-05-13T10:05:48.810Z,3.40
2018-05-13T10:08:19.468Z,3.10
2018-05-13T10:10:50.090Z,3.17
2018-05-13T10:13:20.503Z,3.40
2018-05-13T10:15:50.989Z,3.27
2018-05-13T10:18:21.370Z,3.83
2018-05-13T10:20:51.893Z,3.40
2018-05-13T10:23:22.295Z,3.73
2018-05-13T10:25:54.266Z,3.33
2018-05-13T10:28:24.719Z,3.20
2018-05-13T10:30:55.158Z,3.50
2018-05-13T10:33:25.529Z,3.47
2018-05-13T10:47:08.864Z,3.67
2018-05-13T10:49:38.451Z,3.50
2018-05-13T10:52:07.964Z,3.60
2018-05-13T10:54:37.706Z,3.60
2018-05-13T10:57:07.590Z,3.53
2018-05-13T10:59:36.920Z,3.57
2018-05-13T11:02:06.523Z,3.80
2018-05-13T11:04:36.026Z,4.40
2018-05-13T11:07:05.539Z,3.80
2018-05-13T11:09:38.001Z,3.90
2018-05-13T11:12:08.167Z,4.03
2018-05-13T11:14:38.926Z,4.20
2018-05-13T11:17:09.454Z,4.00
2018-05-13T11:19:39.576Z,4.10
2018-05-13T11:22:09.579Z,4.00
2018-05-13T11:24:39.898Z,4.27
2018-05-13T11:27:10.674Z,3.83
2018-05-13T11:29:41.171Z,4.23
2018-05-13T11:32:11.316Z,4.30
2018-05-13T11:34:41.057Z,3.90
2018-05-13T11:37:11.952Z,3.77
2018-05-13T11:39:42.258Z,4.03
2018-05-13T11:42:12.936Z,3.83
2018-05-13T11:44:46.352Z,3.70
2018-05-13T11:47:17.102Z,3.98
2018-05-13T11:49:48.004Z,3.77
2018-05-13T11:52:20.487Z,3.55
2018-05-13T11:54:51.453Z,3.83
2018-05-13T11:57:21.567Z,3.75
2018-05-13T11:59:51.629Z,4.00
2018-05-13T12:02:21.219Z,3.87
2018-05-13T12:04:50.863Z,3.87
2018-05-13T12:07:20.510Z,3.77
2018-05-13T12:09:49.986Z,3.70
2018-05-13T12:12:19.900Z,3.72
2018-05-13T12:14:50.200Z,3.80
2018-05-13T12:17:20.785Z,3.83
2018-05-13T12:19:54.401Z,3.85
2018-05-13T12:22:24.615Z,3.62
2018-05-13T12:24:54.461Z,3.45
2018-05-13T12:27:24.473Z,3.35
2018-05-13T12:29:54.059Z,3.33
2018-05-13T12:32:24.617Z,3.33
2018-05-13T12:34:54.777Z,3.30
2018-05-13T12:37:25.312Z,3.60
2018-05-13T12:39:54.894Z,3.60
2018-05-13T12:42:24.958Z,3.95
2018-05-13T12:44:54.787Z,3.60
2018-05-13T12:47:24.654Z,3.85
2018-05-13T12:49:55.537Z,3.42
2018-05-13T12:52:25.402Z,3.72
2018-05-13T12:54:54.869Z,3.90
2018-05-13T12:57:25.043Z,3.62
2018-05-13T12:59:54.637Z,3.70
2018-05-13T13:02:25.973Z,3.80
2018-05-13T13:04:55.765Z,3.50
2018-05-13T13:07:26.165Z,3.62
2018-05-13T13:09:56.475Z,3.67
2018-05-13T13:12:26.027Z,3.33
2018-05-13T13:14:55.737Z,3.52
2018-05-13T13:17:25.655Z,3.60
2018-05-13T13:19:57.224Z,3.70
2018-05-13T13:22:27.326Z,4.10
2018-05-13T13:24:57.384Z,3.75
2018-05-13T13:27:27.186Z,3.70
2018-05-13T13:29:56.660Z,3.90
2018-05-13T13:32:26.341Z,3.83
2018-05-13T13:34:55.762Z,4.00
2018-05-13T13:37:26.211Z,3.67
2018-05-13T13:39:56.826Z,3.92
2018-05-13T13:42:29.571Z,3.72
2018-05-13T13:45:00.293Z,4.00
2018-05-13T13:47:30.181Z,3.77
